Time;durP1;ratioP1;P1;durP2;ratioP2;P2;SDS_P1;SDS_P2;PMS_P1;PMS_P2;Temp;Humidity;BMP_temperature;BMP_pressure;BME280_temperature;BME280_humidity;BME280_pressure;Samples;Min_cycle;Max_cycle;Signal;HPM_P1;HPM_P2
2023/12/24 00:02:01;;;;;;;7.88;1.58;;;22.40;99.90;;;;;;5024133;28;20112;-72
2023/12/24 00:04:28;;;;;;;4.18;1.23;;;22.50;99.90;;;;;;5023102;28;20101;-69
2023/12/24 00:06:55;;;;;;;6.68;1.45;;;22.50;99.90;;;;;;5023071;28;20067;-74
2023/12/24 00:09:22;;;;;;;7.13;1.58;;;22.50;99.90;;;;;;5024539;28;20467;-76
2023/12/24 00:11:49;;;;;;;6.97;2.13;;;22.40;99.90;;;;;;5023967;28;20030;-70
2023/12/24 00:14:16;;;;;;;6.05;1.27;;;22.30;99.90;;;;;;5025450;28;20072;-70
2023/12/24 00:16:43;;;;;;;5.60;1.23;;;22.40;99.90;;;;;;5021328;28;20083;-71
2023/12/24 00:19:10;;;;;;;4.55;1.77;;;22.70;99.90;;;;;;5023550;28;20022;-70
2023/12/24 00:21:38;;;;;;;2.22;0.93;;;23.20;99.90;;;;;;5019911;28;20724;-70
2023/12/24 00:24:05;;;;;;;3.28;0.93;;;23.60;99.90;;;;;;5021044;28;20103;-73
2023/12/24 00:26:32;;;;;;;2.78;1.48;;;23.70;99.90;;;;;;5019580;28;20026;-69
2023/12/24 00:28:59;;;;;;;2.92;1.13;;;23.60;99.90;;;;;;5023284;28;20026;-70
2023/12/24 00:31:26;;;;;;;4.18;1.70;;;23.50;99.90;;;;;;5021086;28;20399;-66
2023/12/24 00:33:53;;;;;;;6.80;1.27;;;23.40;99.90;;;;;;5024279;28;20057;-69
2023/12/24 00:36:20;;;;;;;3.40;1.20;;;23.40;99.90;;;;;;5024488;28;20112;-68
2023/12/24 00:38:49;;;;;;;2.88;1.02;;;23.40;99.90;;;;;;5026725;28;20033;-68
2023/12/24 00:41:17;;;;;;;5.82;2.03;;;23.30;99.90;;;;;;5026208;28;20407;-69
2023/12/24 00:43:45;;;;;;;5.63;1.65;;;23.20;99.90;;;;;;4330516;28;10000129;-74
2023/12/24 00:46:18;;;;;;;8.15;2.65;;;23.10;99.90;;;;;;5022846;28;20078;-63
2023/12/24 00:48:45;;;;;;;9.85;2.83;;;22.90;99.90;;;;;;5023275;28;20564;-68
2023/12/24 00:51:12;;;;;;;7.75;2.70;;;22.80;99.90;;;;;;5018505;28;20044;-68
2023/12/24 00:53:39;;;;;;;8.13;2.90;;;22.60;99.90;;;;;;5016928;28;20495;-71
2023/12/24 00:56:07;;;;;;;5.15;2.78;;;22.60;99.90;;;;;;5017009;28;20380;-66
2023/12/24 00:58:34;;;;;;;5.25;2.58;;;22.80;99.90;;;;;;5019411;28;20041;-64
2023/12/24 01:01:01;;;;;;;6.65;2.55;;;23.10;99.90;;;;;;5024589;28;20523;-63
2023/12/24 01:03:28;;;;;;;4.72;1.88;;;23.50;99.90;;;;;;5022585;28;20025;-69
2023/12/24 01:05:55;;;;;;;6.10;2.10;;;23.80;99.90;;;;;;5023457;28;20105;-68
2023/12/24 01:08:22;;;;;;;5.97;1.58;;;23.80;99.90;;;;;;5021570;28;20029;-71
2023/12/24 01:10:49;;;;;;;6.65;2.15;;;23.70;99.90;;;;;;5022754;28;20033;-72
2023/12/24 01:13:19;;;;;;;5.75;1.90;;;23.60;99.90;;;;;;5022212;28;20025;-69
2023/12/24 01:15:49;;;;;;;6.25;2.03;;;23.40;99.90;;;;;;5020546;28;20721;-75
2023/12/24 01:18:16;;;;;;;5.22;1.60;;;23.40;99.90;;;;;;5022219;28;20284;-72
2023/12/24 01:20:44;;;;;;;3.47;1.80;;;23.20;99.90;;;;;;5022662;28;20121;-69
2023/12/24 01:23:11;;;;;;;5.78;2.42;;;23.30;99.90;;;;;;5023184;28;20014;-70
2023/12/24 01:25:38;;;;;;;9.32;5.50;;;23.40;99.90;;;;;;5020530;28;20033;-70
2023/12/24 01:28:05;;;;;;;6.63;2.13;;;23.30;99.90;;;;;;5022721;28;20144;-68
2023/12/24 01:30:32;;;;;;;3.45;2.17;;;23.10;99.90;;;;;;5021662;28;20073;-68
2023/12/24 01:32:59;;;;;;;5.28;2.08;;;23.10;99.90;;;;;;5022148;28;20124;-67
2023/12/24 01:35:26;;;;;;;4.43;1.90;;;23.10;99.90;;;;;;5021760;28;20029;-67
2023/12/24 01:37:54;;;;;;;3.97;1.80;;;23.00;99.90;;;;;;5022358;28;20398;-65
2023/12/24 01:40:21;;;;;;;4.35;1.50;;;22.80;99.90;;;;;;5022428;28;20369;-66
2023/12/24 01:42:48;;;;;;;3.40;1.13;;;22.70;99.90;;;;;;5022029;28;20527;-66
2023/12/24 01:45:15;;;;;;;2.47;1.00;;;22.40;99.90;;;;;;5023213;28;20060;-65
2023/12/24 01:47:43;;;;;;;3.47;1.17;;;22.30;99.90;;;;;;5021867;28;20826;-67
2023/12/24 01:50:11;;;;;;;2.50;1.00;;;22.50;99.90;;;;;;5023252;28;20353;-70
2023/12/24 01:52:38;;;;;;;2.72;1.15;;;22.70;99.90;;;;;;5022973;28;20017;-70
2023/12/24 01:55:07;;;;;;;4.03;1.10;;;23.00;99.90;;;;;;5021896;28;20449;-70
2023/12/24 01:57:35;;;;;;;3.25;1.15;;;23.30;99.90;;;;;;5022325;28;20392;-68
2023/12/24 02:00:02;;;;;;;3.97;1.45;;;23.30;99.90;;;;;;5022303;28;20030;-66
2023/12/24 02:02:31;;;;;;;4.10;1.33;;;23.40;99.90;;;;;;5022122;28;20092;-67
2023/12/24 02:04:59;;;;;;;3.67;1.77;;;23.40;99.90;;;;;;5022047;28;20052;-67
2023/12/24 02:07:28;;;;;;;3.53;1.88;;;23.30;99.90;;;;;;5023199;28;20504;-70
2023/12/24 02:09:55;;;;;;;4.57;1.60;;;23.20;99.90;;;;;;5022807;28;20032;-70
2023/12/24 02:12:22;;;;;;;4.03;1.60;;;23.30;99.90;;;;;;5021987;28;20057;-64
2023/12/24 02:14:49;;;;;;;5.13;1.70;;;23.50;99.90;;;;;;5021970;28;21218;-66
2023/12/24 02:17:17;;;;;;;2.92;1.27;;;23.90;99.90;;;;;;5023530;28;20025;-68
2023/12/24 02:20:09;;;;;;;4.72;1.20;;;24.50;99.90;;;;;;5022748;28;20029;-70
2023/12/24 02:22:37;;;;;;;2.58;1.15;;;25.40;99.90;;;;;;5022822;28;20047;-71
2023/12/24 02:25:05;;;;;;;2.03;1.20;;;25.90;99.90;;;;;;5019111;28;20492;-66
2023/12/24 02:27:46;;;;;;;1.83;1.00;;;26.50;99.90;;;;;;5021360;28;20033;-66
2023/12/24 02:30:20;;;;;;;2.30;1.27;;;26.70;99.90;;;;;;5022756;28;20079;-66
2023/12/24 02:32:54;;;;;;;1.67;0.98;;;26.40;99.90;;;;;;5021789;28;20032;-70
2023/12/24 02:35:22;;;;;;;2.47;1.45;;;26.10;99.90;;;;;;5023299;28;20080;-66
2023/12/24 02:37:49;;;;;;;5.57;1.50;;;26.00;99.90;;;;;;5020670;28;20499;-70
2023/12/24 02:40:16;;;;;;;2.50;1.70;;;26.20;99.90;;;;;;5021255;28;20033;-66
2023/12/24 02:42:43;;;;;;;3.10;1.13;;;26.50;99.90;;;;;;5019800;28;20057;-66
2023/12/24 02:45:10;;;;;;;1.90;0.90;;;27.00;99.90;;;;;;5023810;28;20253;-74
2023/12/24 02:47:38;;;;;;;3.97;1.77;;;27.20;99.90;;;;;;5021058;28;20025;-70
2023/12/24 02:50:05;;;;;;;2.58;1.30;;;27.20;99.90;;;;;;5020952;28;20032;-66
2023/12/24 02:52:33;;;;;;;5.03;1.40;;;27.90;99.90;;;;;;5021786;28;20040;-69
2023/12/24 02:55:00;;;;;;;2.70;1.10;;;28.00;99.90;;;;;;5021287;28;20037;-67
2023/12/24 02:57:27;;;;;;;3.90;1.40;;;28.00;99.90;;;;;;5022217;28;20387;-67
2023/12/24 02:59:54;;;;;;;1.25;0.77;;;28.00;99.90;;;;;;5021768;28;20775;-67
2023/12/24 03:02:21;;;;;;;2.80;1.00;;;28.70;99.90;;;;;;5019521;28;20435;-68
2023/12/24 03:04:48;;;;;;;2.55;1.00;;;29.40;99.90;;;;;;5021772;28;20033;-70
2023/12/24 03:07:15;;;;;;;1.58;0.68;;;29.80;99.90;;;;;;5023741;28;20025;-72
2023/12/24 03:09:42;;;;;;;2.58;1.05;;;29.80;99.90;;;;;;5021751;28;20077;-67
2023/12/24 03:12:09;;;;;;;2.90;0.95;;;29.80;99.90;;;;;;5023298;28;20026;-67
2023/12/24 03:14:36;;;;;;;1.20;0.85;;;29.50;99.90;;;;;;5021424;28;20030;-66
2023/12/24 03:17:04;;;;;;;1.70;1.00;;;29.70;99.90;;;;;;5021138;28;20029;-70
2023/12/24 03:19:33;;;;;;;1.52;0.90;;;29.20;99.90;;;;;;5021659;28;20511;-68
2023/12/24 03:22:00;;;;;;;2.63;1.00;;;28.70;99.90;;;;;;5021101;28;20028;-67
2023/12/24 03:24:27;;;;;;;14.23;3.40;;;27.70;99.90;;;;;;5015993;28;20022;-70
2023/12/24 03:26:55;;;;;;;1.83;1.13;;;27.20;99.90;;;;;;5016448;28;20579;-66
2023/12/24 03:29:22;;;;;;;2.78;1.33;;;27.00;99.90;;;;;;5026568;28;20033;-70
2023/12/24 03:31:50;;;;;;;2.13;1.27;;;27.00;99.90;;;;;;5011457;28;20026;-70
2023/12/24 03:34:17;;;;;;;4.07;1.45;;;27.00;99.90;;;;;;5019474;28;20614;-66
2023/12/24 03:36:44;;;;;;;3.70;1.50;;;26.90;99.90;;;;;;5016774;28;20018;-66
2023/12/24 03:39:11;;;;;;;2.80;1.33;;;26.30;99.90;;;;;;5024202;28;20033;-69
2023/12/24 03:41:39;;;;;;;3.15;1.50;;;26.00;99.90;;;;;;5024915;28;20531;-70
2023/12/24 03:44:06;;;;;;;3.03;1.80;;;25.50;99.90;;;;;;5021647;28;20030;-67
2023/12/24 03:46:33;;;;;;;6.35;1.48;;;25.50;99.90;;;;;;5020618;28;20029;-68
2023/12/24 03:49:00;;;;;;;4.90;1.73;;;25.50;99.90;;;;;;5018421;28;20326;-72
2023/12/24 03:51:27;;;;;;;5.18;1.55;;;25.30;99.90;;;;;;5017694;28;20101;-68
2023/12/24 03:53:54;;;;;;;6.38;1.90;;;24.70;99.90;;;;;;5015733;28;20033;-69
2023/12/24 03:56:21;;;;;;;6.55;1.75;;;24.10;99.90;;;;;;5014278;28;20116;-73
2023/12/24 03:58:48;;;;;;;7.45;2.03;;;23.80;99.90;;;;;;5015554;28;20930;-71
2023/12/24 04:01:15;;;;;;;8.65;2.00;;;23.80;99.90;;;;;;5012729;28;20098;-71
2023/12/24 04:03:44;;;;;;;5.38;2.03;;;24.00;99.90;;;;;;5027994;28;20029;-69
2023/12/24 04:06:16;;;;;;;8.65;2.00;;;24.10;99.90;;;;;;5027691;28;20025;-70
2023/12/24 04:08:43;;;;;;;12.13;3.40;;;24.10;99.90;;;;;;5030289;28;20030;-69
2023/12/24 04:11:14;;;;;;;7.03;1.88;;;24.10;99.90;;;;;;5031732;28;20434;-68
2023/12/24 04:13:41;;;;;;;6.55;2.00;;;24.10;99.90;;;;;;5025468;28;20024;-68
2023/12/24 04:16:08;;;;;;;6.72;1.70;;;24.10;99.90;;;;;;5016988;28;20060;-73
2023/12/24 04:18:36;;;;;;;6.82;2.10;;;24.10;99.90;;;;;;5027745;28;20029;-74
2023/12/24 04:21:03;;;;;;;5.28;1.95;;;24.10;99.90;;;;;;5024971;28;20435;-72
2023/12/24 04:23:30;;;;;;;5.43;1.80;;;24.00;99.90;;;;;;5021666;28;20014;-68
2023/12/24 04:25:58;;;;;;;7.22;1.98;;;24.10;99.90;;;;;;5031678;28;20064;-68
2023/12/24 04:28:25;;;;;;;7.47;2.10;;;23.90;99.90;;;;;;5033991;28;20084;-71
2023/12/24 04:30:52;;;;;;;5.15;1.98;;;23.90;99.90;;;;;;5025446;28;20064;-75
2023/12/24 04:33:19;;;;;;;10.13;2.38;;;23.80;99.90;;;;;;5019374;28;20467;-74
2023/12/24 04:35:46;;;;;;;6.45;1.70;;;23.90;99.90;;;;;;5028010;28;20032;-72
2023/12/24 04:38:13;;;;;;;9.52;2.83;;;23.80;99.90;;;;;;5027201;28;20125;-68
2023/12/24 04:40:40;;;;;;;10.35;2.42;;;23.80;99.90;;;;;;5026980;28;20025;-69
2023/12/24 04:43:07;;;;;;;5.85;1.95;;;23.80;99.90;;;;;;5029034;28;20044;-69
2023/12/24 04:45:34;;;;;;;10.30;2.60;;;23.80;99.90;;;;;;5020657;28;20495;-69
2023/12/24 04:48:03;;;;;;;10.40;3.38;;;23.90;99.90;;;;;;5024997;28;20438;-69
2023/12/24 04:50:30;;;;;;;8.85;2.90;;;24.00;99.90;;;;;;5011989;28;20094;-71
2023/12/24 04:52:57;;;;;;;8.27;2.63;;;24.00;99.90;;;;;;5029211;28;20024;-68
2023/12/24 04:55:24;;;;;;;11.18;2.85;;;23.90;99.90;;;;;;5033147;28;20113;-69
2023/12/24 04:57:54;;;;;;;6.43;2.42;;;23.90;99.90;;;;;;5032153;28;20048;-71
2023/12/24 05:00:21;;;;;;;7.15;2.25;;;23.80;99.90;;;;;;5024536;28;20373;-71
2023/12/24 05:02:48;;;;;;;11.27;3.22;;;23.70;99.90;;;;;;5024949;28;20096;-72
2023/12/24 05:05:16;;;;;;;10.73;2.80;;;23.60;99.90;;;;;;5026349;28;20041;-72
2023/12/24 05:07:43;;;;;;;13.20;3.20;;;23.40;99.90;;;;;;5029750;28;20025;-73
2023/12/24 05:10:10;;;;;;;9.75;2.75;;;23.40;99.90;;;;;;5023680;28;20116;-69
2023/12/24 05:12:37;;;;;;;10.30;3.25;;;23.50;99.90;;;;;;5026007;28;20246;-70
2023/12/24 05:15:05;;;;;;;7.63;2.40;;;23.70;99.90;;;;;;5024997;28;20171;-70
2023/12/24 05:17:32;;;;;;;10.90;3.53;;;23.70;99.90;;;;;;5027964;28;20073;-70
2023/12/24 05:19:59;;;;;;;9.68;2.97;;;23.60;99.90;;;;;;5027455;28;20064;-72
2023/12/24 05:22:26;;;;;;;13.82;3.30;;;23.50;99.90;;;;;;5027310;28;20034;-69
2023/12/24 05:24:53;;;;;;;12.95;3.05;;;23.50;99.90;;;;;;5023383;28;20373;-69
2023/12/24 05:27:20;;;;;;;6.90;2.90;;;23.40;99.90;;;;;;5024567;28;20632;-73
2023/12/24 05:29:47;;;;;;;8.23;2.78;;;23.30;99.90;;;;;;5025477;28;20029;-72
2023/12/24 05:32:14;;;;;;;11.80;3.30;;;23.30;99.90;;;;;;5023794;28;20116;-69
2023/12/24 05:34:42;;;;;;;6.38;2.80;;;23.50;99.90;;;;;;5023875;28;20045;-68
2023/12/24 05:37:09;;;;;;;6.60;2.35;;;23.50;99.90;;;;;;5024211;28;20025;-67
2023/12/24 05:39:40;;;;;;;12.35;3.28;;;23.50;99.90;;;;;;5023116;28;20033;-68
2023/12/24 05:42:07;;;;;;;8.65;2.63;;;23.40;99.90;;;;;;5027128;28;20024;-67
2023/12/24 05:44:37;;;;;;;8.80;3.47;;;23.40;99.90;;;;;;5022285;28;20030;-69
2023/12/24 05:47:04;;;;;;;10.20;3.05;;;23.30;99.90;;;;;;5022257;28;20554;-68
2023/12/24 05:49:32;;;;;;;11.68;2.75;;;23.20;99.90;;;;;;5022465;28;20502;-65
2023/12/24 05:51:59;;;;;;;10.80;2.97;;;23.10;99.90;;;;;;5020775;28;20033;-67
2023/12/24 05:54:26;;;;;;;9.15;2.75;;;23.00;99.90;;;;;;5021307;28;20129;-73
2023/12/24 05:56:53;;;;;;;8.65;2.72;;;22.80;99.90;;;;;;5022911;28;20040;-69
2023/12/24 05:59:20;;;;;;;14.13;3.30;;;22.70;99.90;;;;;;5018804;28;20025;-68
2023/12/24 06:01:47;;;;;;;9.55;3.25;;;22.50;99.90;;;;;;5022499;28;20030;-66
2023/12/24 06:04:14;;;;;;;10.07;2.88;;;22.30;99.90;;;;;;5020032;28;20464;-67
2023/12/24 06:06:42;;;;;;;10.80;2.60;;;22.20;99.90;;;;;;5017750;28;20080;-69
2023/12/24 06:09:09;;;;;;;6.85;2.28;;;22.10;99.90;;;;;;5018608;28;20025;-64
2023/12/24 06:11:36;;;;;;;8.20;3.05;;;22.10;99.90;;;;;;5015351;28;20732;-66
2023/12/24 06:14:03;;;;;;;9.65;2.65;;;22.00;99.90;;;;;;5022310;28;20029;-65
2023/12/24 06:16:30;;;;;;;6.95;2.28;;;22.00;99.90;;;;;;5020591;28;20036;-70
2023/12/24 06:18:57;;;;;;;4.90;2.38;;;22.00;99.90;;;;;;5018001;28;20471;-65
2023/12/24 06:21:24;;;;;;;6.30;2.50;;;21.90;99.90;;;;;;5019768;28;20021;-67
2023/12/24 06:23:54;;;;;;;4.93;2.10;;;21.90;99.90;;;;;;5018187;28;20500;-67
2023/12/24 06:26:21;;;;;;;11.73;2.60;;;21.90;99.90;;;;;;5022186;28;20029;-64
2023/12/24 06:28:48;;;;;;;10.50;3.50;;;22.00;99.90;;;;;;5021571;28;20031;-73
2023/12/24 06:31:22;;;;;;;9.23;2.50;;;22.10;99.90;;;;;;5022922;28;20090;-66
2023/12/24 06:33:49;;;;;;;10.07;3.08;;;22.20;99.90;;;;;;5022064;28;20041;-64
2023/12/24 06:36:17;;;;;;;9.85;3.60;;;22.30;99.90;;;;;;5022708;28;20048;-67
2023/12/24 06:38:45;;;;;;;13.00;3.08;;;22.50;99.90;;;;;;5019853;28;20044;-70
2023/12/24 06:41:12;;;;;;;13.65;3.03;;;22.40;99.90;;;;;;5022987;28;20571;-64
2023/12/24 06:43:39;;;;;;;9.50;3.30;;;22.50;99.90;;;;;;5023529;28;20108;-68
2023/12/24 06:46:06;;;;;;;6.25;2.33;;;22.70;99.90;;;;;;5019436;28;20102;-73
2023/12/24 06:48:33;;;;;;;7.68;2.30;;;22.90;99.90;;;;;;5019208;28;20025;-68
2023/12/24 06:51:01;;;;;;;4.53;1.92;;;23.00;99.90;;;;;;5020007;28;20063;-69
2023/12/24 06:53:28;;;;;;;4.40;1.95;;;24.60;99.90;;;;;;5017699;28;20026;-67
2023/12/24 06:55:55;;;;;;;3.55;1.73;;;26.10;99.90;;;;;;5018480;28;20040;-68
2023/12/24 06:58:22;;;;;;;6.25;1.80;;;27.30;99.90;;;;;;5020398;28;20025;-68
2023/12/24 07:00:49;;;;;;;6.75;2.00;;;27.60;99.90;;;;;;5018585;28;20147;-68
2023/12/24 07:03:17;;;;;;;5.00;1.45;;;27.90;99.90;;;;;;5019702;28;20029;-68
2023/12/24 07:05:44;;;;;;;4.50;1.85;;;27.40;99.90;;;;;;5017037;28;20032;-74
2023/12/24 07:08:12;;;;;;;5.10;1.50;;;27.10;99.90;;;;;;5014868;28;20018;-66
2023/12/24 07:10:39;;;;;;;4.07;1.90;;;27.50;99.90;;;;;;5019099;28;20021;-75
2023/12/24 07:13:07;;;;;;;2.88;1.13;;;27.80;99.90;;;;;;5019310;28;20036;-70
2023/12/24 07:15:42;;;;;;;4.65;1.48;;;27.40;99.90;;;;;;5018362;28;20033;-70
2023/12/24 07:18:10;;;;;;;4.20;1.58;;;26.60;99.90;;;;;;5022026;28;20033;-68
2023/12/24 07:20:37;;;;;;;4.85;1.77;;;26.00;99.90;;;;;;5020077;28;20034;-71
2023/12/24 07:23:04;;;;;;;2.83;1.45;;;25.20;99.90;;;;;;5020675;28;20440;-64
2023/12/24 07:25:31;;;;;;;2.88;1.20;;;24.70;99.90;;;;;;5019336;28;20121;-65
2023/12/24 07:27:58;;;;;;;2.55;1.20;;;24.20;99.90;;;;;;5020239;28;20017;-69
2023/12/24 07:30:25;;;;;;;3.22;1.38;;;23.70;99.90;;;;;;5021300;28;20037;-68
